Time;durP1;ratioP1;P1;durP2;ratioP2;P2;SDS_P1;SDS_P2;PMS_P1;PMS_P2;Temp;Humidity;BMP_temperature;BMP_pressure;BME280_temperature;BME280_humidity;BME280_pressure;Samples;Min_cycle;Max_cycle;Signal;HPM_P1;HPM_P2
2023/03/06 00:00:21;;;;;;;2.97;1.40;;;3.20;94.60;;;;;;5083069;28;20191;-69
2023/03/06 00:02:49;;;;;;;3.67;2.03;;;3.00;94.50;;;;;;5071210;28;20661;-69
2023/03/06 00:05:19;;;;;;;5.75;2.25;;;3.00;94.50;;;;;;5071353;28;20241;-68
2023/03/06 00:07:46;;;;;;;3.95;3.58;;;3.00;94.40;;;;;;5070939;28;20196;-69
2023/03/06 00:10:15;;;;;;;1.83;1.73;;;3.00;94.30;;;;;;5071011;28;20229;-69
2023/03/06 00:12:42;;;;;;;2.22;1.95;;;3.00;94.40;;;;;;5072149;28;20204;-69
2023/03/06 00:15:10;;;;;;;9.15;3.15;;;3.00;94.40;;;;;;5071894;28;20671;-69
2023/03/06 00:17:37;;;;;;;1.10;1.02;;;3.00;94.40;;;;;;5071871;28;20545;-70
2023/03/06 00:20:08;;;;;;;2.17;2.03;;;3.00;94.20;;;;;;5071790;28;20556;-69
2023/03/06 00:22:35;;;;;;;3.63;1.27;;;3.00;94.10;;;;;;5070377;28;20626;-70
2023/03/06 00:25:02;;;;;;;2.53;2.22;;;3.10;94.20;;;;;;5071692;28;20549;-69
2023/03/06 00:27:30;;;;;;;1.63;1.52;;;3.10;93.80;;;;;;5071883;28;20192;-70
2023/03/06 00:29:58;;;;;;;2.10;1.75;;;3.10;93.50;;;;;;5071851;28;20650;-70
2023/03/06 00:32:26;;;;;;;7.43;4.07;;;3.00;93.70;;;;;;5071506;28;20223;-69
2023/03/06 00:34:54;;;;;;;3.25;2.97;;;3.00;93.60;;;;;;5071276;28;20877;-70
2023/03/06 00:37:24;;;;;;;2.42;1.42;;;2.90;93.70;;;;;;5071311;28;20218;-69
2023/03/06 00:39:53;;;;;;;2.50;2.30;;;2.90;93.80;;;;;;5072820;28;20191;-68
2023/03/06 00:42:20;;;;;;;3.40;2.63;;;2.90;94.00;;;;;;5071530;28;20221;-70
2023/03/06 00:44:47;;;;;;;1.45;1.30;;;2.90;94.10;;;;;;5070730;28;20191;-70
2023/03/06 00:47:16;;;;;;;3.05;2.08;;;3.00;98.60;;;;;;5070672;28;20643;-70
2023/03/06 00:49:43;;;;;;;3.28;2.97;;;2.90;94.40;;;;;;5071180;28;20249;-70
2023/03/06 00:52:09;;;;;;;2.67;2.47;;;2.90;94.10;;;;;;5071823;28;20237;-70
2023/03/06 00:54:38;;;;;;;2.78;1.40;;;2.90;94.20;;;;;;5071482;28;20191;-70
2023/03/06 00:57:05;;;;;;;6.93;1.85;;;2.90;94.30;;;;;;5066082;28;20218;-69
2023/03/06 00:59:32;;;;;;;2.50;2.30;;;2.80;99.90;;;;;;5085363;28;20580;-69
2023/03/06 01:02:04;;;;;;;4.35;3.38;;;2.70;99.90;;;;;;5070605;28;20226;-70
2023/03/06 01:04:30;;;;;;;2.47;2.38;;;2.80;94.40;;;;;;5071575;28;20195;-69
2023/03/06 01:06:57;;;;;;;3.42;1.55;;;2.80;94.60;;;;;;5070842;28;20225;-69
2023/03/06 01:09:24;;;;;;;1.80;1.65;;;2.90;94.30;;;;;;5070803;28;20198;-69
2023/03/06 01:12:00;;;;;;;4.47;1.73;;;2.80;94.20;;;;;;5070606;28;20695;-69
2023/03/06 01:14:27;;;;;;;5.10;2.03;;;2.80;99.90;;;;;;5070677;28;20548;-70
2023/03/06 01:16:54;;;;;;;1.55;1.02;;;2.80;94.30;;;;;;5070701;28;20692;-69
2023/03/06 01:19:20;;;;;;;5.38;3.53;;;2.80;94.20;;;;;;5070973;28;20198;-69
2023/03/06 01:21:47;;;;;;;2.42;2.22;;;2.80;94.60;;;;;;5070354;28;20215;-69
2023/03/06 01:24:14;;;;;;;2.00;1.90;;;2.90;94.40;;;;;;5069828;28;20206;-69
2023/03/06 01:26:41;;;;;;;3.53;2.28;;;2.90;94.00;;;;;;5069849;28;20226;-70
2023/03/06 01:29:09;;;;;;;2.15;1.95;;;2.80;94.10;;;;;;5062642;28;20199;-69
2023/03/06 01:31:36;;;;;;;1.92;1.75;;;2.80;94.10;;;;;;5070345;28;20226;-70
2023/03/06 01:34:11;;;;;;;5.28;1.80;;;2.80;94.10;;;;;;5071263;28;20583;-69
2023/03/06 01:36:38;;;;;;;3.95;2.30;;;2.70;94.00;;;;;;5070547;28;20215;-69
2023/03/06 01:39:04;;;;;;;2.15;1.83;;;2.70;94.20;;;;;;5070315;28;20195;-69
2023/03/06 01:41:31;;;;;;;2.40;2.30;;;2.70;94.40;;;;;;5071560;28;20230;-70
2023/03/06 01:43:58;;;;;;;1.70;1.60;;;2.60;94.40;;;;;;5070621;28;20286;-69
2023/03/06 01:46:41;;;;;;;2.15;2.05;;;2.60;94.10;;;;;;5070360;28;20215;-69
2023/03/06 01:49:12;;;;;;;0.80;0.80;;;2.60;94.10;;;;;;5066677;28;20205;-69
2023/03/06 01:51:42;;;;;;;2.53;1.80;;;2.60;94.10;;;;;;5070099;28;20237;-69
2023/03/06 01:54:22;;;;;;;1.67;1.58;;;2.60;93.90;;;;;;5070216;28;20203;-69
2023/03/06 01:56:52;;;;;;;1.00;1.00;;;2.70;93.90;;;;;;5058849;28;20211;-69
2023/03/06 01:59:20;;;;;;;0.90;0.90;;;2.70;93.60;;;;;;5070784;28;20191;-70
2023/03/06 02:01:50;;;;;;;2.03;1.92;;;2.60;93.60;;;;;;5069793;28;20215;-69
2023/03/06 02:04:18;;;;;;;3.45;2.15;;;3.50;94.00;;;;;;5070474;28;20207;-70
2023/03/06 02:06:45;;;;;;;1.92;1.83;;;2.60;93.30;;;;;;5069892;28;20245;-69
2023/03/06 02:09:13;;;;;;;0.68;0.68;;;2.60;93.50;;;;;;5069514;28;20192;-70
2023/03/06 02:11:42;;;;;;;1.45;1.42;;;2.60;93.70;;;;;;5069970;28;20242;-68
2023/03/06 02:14:17;;;;;;;3.45;2.30;;;2.60;96.70;;;;;;5070321;28;20691;-69
2023/03/06 02:16:45;;;;;;;2.63;2.22;;;2.60;93.50;;;;;;5069854;28;20225;-70
2023/03/06 02:19:26;;;;;;;6.20;2.58;;;2.50;93.40;;;;;;5069221;28;20199;-70
2023/03/06 02:21:54;;;;;;;3.45;3.15;;;2.50;93.80;;;;;;5070119;28;20259;-68
2023/03/06 02:24:39;;;;;;;1.35;1.25;;;2.50;93.60;;;;;;5070303;28;20253;-69
2023/03/06 02:27:13;;;;;;;10.43;3.40;;;2.50;93.90;;;;;;5070028;28;20226;-69
2023/03/06 02:29:40;;;;;;;9.00;2.22;;;2.50;99.90;;;;;;5069553;28;20196;-69
2023/03/06 02:32:15;;;;;;;5.45;2.50;;;2.50;94.10;;;;;;5069463;28;20280;-68
2023/03/06 02:34:57;;;;;;;1.27;1.17;;;2.50;94.00;;;;;;5070179;28;20187;-69
2023/03/06 02:37:35;;;;;;;0.82;0.73;;;2.50;94.10;;;;;;5070369;28;20219;-70
2023/03/06 02:40:11;;;;;;;1.27;1.15;;;2.50;94.10;;;;;;5075510;28;20236;-69
2023/03/06 02:42:46;;;;;;;1.63;1.35;;;2.40;94.10;;;;;;5070800;28;20751;-69
2023/03/06 02:45:17;;;;;;;1.10;1.10;;;3.00;99.90;;;;;;5070035;28;20230;-69
2023/03/06 02:47:45;;;;;;;3.33;1.92;;;2.40;94.10;;;;;;5069911;28;20318;-69
2023/03/06 02:50:13;;;;;;;2.35;2.00;;;2.40;94.00;;;;;;5068550;28;20612;-69
2023/03/06 02:52:40;;;;;;;4.00;1.50;;;2.40;93.90;;;;;;5069849;28;20306;-69
2023/03/06 02:55:09;;;;;;;3.28;1.65;;;2.40;93.90;;;;;;5069568;28;20275;-70
2023/03/06 02:57:39;;;;;;;1.50;1.40;;;2.40;93.50;;;;;;5067058;28;20227;-69
2023/03/06 03:00:08;;;;;;;2.58;2.38;;;2.40;93.60;;;;;;5074930;28;20210;-70
2023/03/06 03:02:35;;;;;;;2.50;1.98;;;2.40;94.00;;;;;;5069390;28;20636;-69
2023/03/06 03:05:08;;;;;;;1.20;1.20;;;2.40;94.10;;;;;;5070103;28;20287;-68
2023/03/06 03:07:36;;;;;;;5.80;1.73;;;2.40;93.80;;;;;;5071753;28;20314;-69
2023/03/06 03:10:04;;;;;;;1.50;1.40;;;2.30;93.60;;;;;;5073706;28;20298;-69
2023/03/06 03:12:31;;;;;;;5.00;2.55;;;2.30;93.90;;;;;;5072836;28;20224;-69
2023/03/06 03:15:07;;;;;;;6.70;2.45;;;2.20;93.60;;;;;;5073413;28;20192;-69
2023/03/06 03:17:35;;;;;;;2.45;1.42;;;2.30;93.70;;;;;;5072942;28;20769;-70
2023/03/06 03:20:05;;;;;;;2.50;1.13;;;2.30;93.70;;;;;;5073553;28;20563;-69
2023/03/06 03:22:32;;;;;;;2.65;2.55;;;2.30;93.90;;;;;;5071402;28;20202;-70
2023/03/06 03:25:06;;;;;;;1.90;1.23;;;2.30;94.00;;;;;;5073560;28;20240;-70
2023/03/06 03:27:34;;;;;;;1.30;1.05;;;2.30;94.10;;;;;;5072811;28;20293;-69
2023/03/06 03:30:04;;;;;;;0.65;0.50;;;2.30;94.30;;;;;;5072457;28;20192;-69
2023/03/06 03:32:32;;;;;;;3.85;2.00;;;2.30;94.20;;;;;;5072797;28;20227;-69
2023/03/06 03:35:05;;;;;;;2.42;1.52;;;2.20;99.90;;;;;;5073281;28;20279;-69
2023/03/06 03:37:33;;;;;;;2.38;1.20;;;2.30;94.20;;;;;;5073156;28;20220;-69
2023/03/06 03:40:00;;;;;;;7.13;2.90;;;2.30;94.20;;;;;;5074222;28;20571;-70
2023/03/06 03:42:28;;;;;;;3.05;1.70;;;2.20;99.90;;;;;;5072473;28;20402;-69
2023/03/06 03:44:55;;;;;;;3.35;1.17;;;2.20;94.10;;;;;;5073319;28;20214;-69
2023/03/06 03:47:37;;;;;;;4.15;1.05;;;2.20;93.90;;;;;;5072946;28;20221;-69
2023/03/06 03:50:06;;;;;;;1.23;0.82;;;2.10;93.90;;;;;;5072602;28;20286;-69
2023/03/06 03:52:34;;;;;;;2.20;1.67;;;2.20;93.70;;;;;;5072524;28;20688;-70
2023/03/06 03:55:03;;;;;;;1.23;0.85;;;2.20;99.90;;;;;;5072220;28;20197;-68
2023/03/06 03:57:31;;;;;;;1.58;1.48;;;2.20;94.40;;;;;;5072343;28;20695;-69
2023/03/06 03:59:59;;;;;;;2.92;1.60;;;1.80;99.90;;;;;;5072156;28;20196;-69
2023/03/06 04:02:26;;;;;;;1.95;1.83;;;2.20;94.00;;;;;;5072006;28;20296;-69
2023/03/06 04:04:58;;;;;;;2.75;2.35;;;2.20;93.80;;;;;;5072402;28;20286;-67
2023/03/06 04:07:25;;;;;;;1.63;1.60;;;2.30;93.60;;;;;;5071853;28;20587;-69
2023/03/06 04:09:52;;;;;;;1.45;1.15;;;2.30;93.40;;;;;;5072772;28;20665;-70
2023/03/06 04:12:19;;;;;;;1.45;1.35;;;2.20;93.40;;;;;;5071593;28;20223;-69
2023/03/06 04:14:46;;;;;;;1.92;1.83;;;2.30;93.20;;;;;;5072833;28;20197;-69
2023/03/06 04:17:13;;;;;;;0.40;0.40;;;;;;;;;;5071716;28;20272;-71
2023/03/06 04:19:40;;;;;;;3.25;1.33;;;2.20;92.80;;;;;;5071044;28;20273;-69
2023/03/06 04:22:09;;;;;;;3.75;1.55;;;2.10;99.10;;;;;;5070549;28;20314;-69
2023/03/06 04:24:36;;;;;;;3.60;1.42;;;2.20;93.20;;;;;;5069551;28;20213;-70
2023/03/06 04:27:03;;;;;;;2.05;1.40;;;2.20;93.00;;;;;;5071814;28;20211;-69
2023/03/06 04:29:29;;;;;;;0.65;0.65;;;2.20;93.10;;;;;;5072028;28;20204;-71
2023/03/06 04:31:56;;;;;;;3.63;1.90;;;2.10;92.90;;;;;;5071445;28;20238;-70
2023/03/06 04:34:23;;;;;;;2.92;0.88;;;2.10;92.80;;;;;;5071059;28;20195;-70
2023/03/06 04:36:50;;;;;;;1.50;1.25;;;2.10;98.90;;;;;;5071781;28;20222;-69
2023/03/06 04:39:19;;;;;;;2.83;1.73;;;2.20;93.10;;;;;;5071547;28;20644;-69
2023/03/06 04:41:45;;;;;;;3.10;2.13;;;2.20;93.10;;;;;;5080554;28;20215;-70
2023/03/06 04:44:12;;;;;;;3.35;1.10;;;2.30;93.10;;;;;;5071707;28;20197;-70
2023/03/06 04:46:39;;;;;;;1.05;0.93;;;2.30;93.00;;;;;;5072051;28;20214;-69
2023/03/06 04:49:09;;;;;;;2.47;2.17;;;2.10;93.10;;;;;;5070811;28;20187;-68
2023/03/06 04:51:35;;;;;;;0.85;0.82;;;2.10;93.10;;;;;;5071382;28;20211;-69
2023/03/06 04:54:02;;;;;;;1.00;1.00;;;2.10;93.20;;;;;;5071765;28;20191;-70
2023/03/06 04:56:31;;;;;;;5.40;2.08;;;2.00;93.10;;;;;;5070047;28;20215;-70
2023/03/06 04:58:57;;;;;;;3.97;3.63;;;2.10;93.10;;;;;;5081237;28;20221;-70
2023/03/06 05:01:32;;;;;;;1.35;1.25;;;2.10;93.00;;;;;;5077146;28;20559;-70
2023/03/06 05:03:58;;;;;;;0.57;0.52;;;2.10;93.00;;;;;;5071158;28;20202;-70
2023/03/06 05:06:25;;;;;;;0.82;0.82;;;2.10;92.90;;;;;;5071081;28;20319;-70
2023/03/06 05:08:52;;;;;;;2.63;1.27;;;2.10;93.00;;;;;;5070927;28;20199;-70
2023/03/06 05:11:19;;;;;;;5.20;2.42;;;2.10;93.20;;;;;;5070460;28;20215;-69
2023/03/06 05:13:48;;;;;;;5.63;2.03;;;2.10;93.20;;;;;;5071385;28;20688;-70
2023/03/06 05:16:15;;;;;;;3.28;1.35;;;;;;;;;;5070859;28;20211;-70
2023/03/06 05:18:42;;;;;;;0.93;0.90;;;2.10;93.30;;;;;;5070719;28;20200;-70
2023/03/06 05:21:08;;;;;;;1.20;0.75;;;2.20;93.50;;;;;;5071165;28;20794;-70
2023/03/06 05:23:41;;;;;;;0.75;0.52;;;2.10;93.90;;;;;;5069811;28;20203;-70
2023/03/06 05:26:09;;;;;;;4.45;1.92;;;2.10;93.60;;;;;;5070732;28;20693;-67
2023/03/06 05:28:36;;;;;;;1.15;1.05;;;2.10;93.70;;;;;;5069383;28;20545;-69
2023/03/06 05:31:05;;;;;;;1.67;1.02;;;2.10;93.70;;;;;;5070507;28;20220;-67
2023/03/06 05:33:32;;;;;;;4.40;4.15;;;2.10;94.10;;;;;;5070902;28;20216;-68
2023/03/06 05:35:59;;;;;;;0.98;0.98;;;2.10;93.90;;;;;;5070915;28;20223;-69
2023/03/06 05:38:27;;;;;;;0.77;0.77;;;2.10;93.50;;;;;;5070353;28;20195;-68
2023/03/06 05:40:54;;;;;;;1.25;1.23;;;2.10;93.60;;;;;;5070446;28;20216;-69
2023/03/06 05:43:21;;;;;;;1.17;1.17;;;2.10;93.60;;;;;;5070625;28;20253;-69
2023/03/06 05:45:49;;;;;;;1.13;1.08;;;2.10;93.70;;;;;;5070588;28;20229;-68
2023/03/06 05:48:17;;;;;;;0.80;0.80;;;2.10;93.60;;;;;;5070126;28;20299;-69
2023/03/06 05:50:44;;;;;;;1.83;1.73;;;2.10;93.70;;;;;;5070514;28;20202;-68
2023/03/06 05:53:11;;;;;;;3.10;1.90;;;2.10;93.80;;;;;;5070566;28;20227;-68
2023/03/06 05:55:55;;;;;;;0.88;0.88;;;2.10;93.90;;;;;;5069055;28;20226;-67
2023/03/06 05:58:22;;;;;;;6.88;1.58;;;2.10;94.00;;;;;;5072477;28;20190;-68
2023/03/06 06:00:49;;;;;;;0.80;0.80;;;2.10;93.80;;;;;;5070405;28;20663;-69
2023/03/06 06:03:17;;;;;;;1.98;1.73;;;2.10;93.60;;;;;;5069796;28;20641;-69
2023/03/06 06:05:44;;;;;;;3.10;1.38;;;2.10;93.70;;;;;;5070485;28;20713;-68
2023/03/06 06:08:11;;;;;;;2.83;1.25;;;2.10;99.40;;;;;;5067403;28;20198;-70
2023/03/06 06:10:39;;;;;;;0.98;0.70;;;2.10;93.10;;;;;;5067265;28;20226;-68
2023/03/06 06:13:06;;;;;;;1.15;0.85;;;2.20;93.10;;;;;;5069682;28;20276;-69
2023/03/06 06:15:33;;;;;;;0.88;0.60;;;2.20;93.40;;;;;;5070196;28;20562;-68
2023/03/06 06:18:01;;;;;;;1.50;1.40;;;2.20;93.60;;;;;;5069509;28;20282;-69
2023/03/06 06:20:30;;;;;;;0.80;0.80;;;2.20;93.50;;;;;;5068712;28;20226;-68
2023/03/06 06:22:56;;;;;;;0.45;0.45;;;2.20;99.20;;;;;;5065243;28;20210;-67
2023/03/06 06:25:23;;;;;;;0.60;0.40;;;2.20;92.90;;;;;;5069558;28;20214;-68
2023/03/06 06:27:55;;;;;;;1.30;1.20;;;2.30;92.70;;;;;;5069487;28;20204;-67
2023/03/06 06:30:22;;;;;;;1.83;1.55;;;2.30;93.00;;;;;;5078236;28;20228;-68
2023/03/06 06:32:49;;;;;;;4.93;1.10;;;2.30;92.30;;;;;;5069477;28;20219;-69
2023/03/06 06:35:16;;;;;;;4.72;2.53;;;2.40;94.90;;;;;;5068377;28;20192;-68
2023/03/06 06:37:52;;;;;;;1.38;1.38;;;2.20;92.50;;;;;;5085839;28;20253;-68
2023/03/06 06:40:19;;;;;;;1.15;0.80;;;2.40;98.60;;;;;;5081724;28;20191;-68
2023/03/06 06:42:46;;;;;;;1.35;0.98;;;2.30;92.90;;;;;;5072262;28;20226;-69
2023/03/06 06:45:13;;;;;;;2.85;2.75;;;2.30;92.70;;;;;;5073757;28;20222;-69
2023/03/06 06:47:40;;;;;;;0.80;0.80;;;2.40;93.00;;;;;;5073558;28;20286;-69
2023/03/06 06:50:10;;;;;;;2.70;1.88;;;2.40;93.00;;;;;;5073327;28;20212;-68
2023/03/06 06:52:37;;;;;;;2.60;1.25;;;2.40;93.00;;;;;;5073411;28;20215;-68
2023/03/06 06:55:07;;;;;;;0.95;0.90;;;2.40;93.00;;;;;;5069458;28;20199;-69
2023/03/06 06:57:34;;;;;;;1.40;1.30;;;2.40;92.40;;;;;;5072078;28;20569;-68
2023/03/06 07:00:01;;;;;;;0.65;0.65;;;2.30;99.20;;;;;;5073183;28;20225;-69
2023/03/06 07:02:28;;;;;;;1.48;1.38;;;2.40;92.60;;;;;;5071683;28;20215;-68
2023/03/06 07:04:55;;;;;;;2.38;1.35;;;2.50;92.80;;;;;;5074166;28;20203;-69
2023/03/06 07:07:22;;;;;;;4.20;1.10;;;2.40;93.00;;;;;;5072601;28;20225;-68
2023/03/06 07:09:57;;;;;;;2.90;1.58;;;2.50;92.80;;;;;;5072266;28;20742;-68
2023/03/06 07:12:25;;;;;;;1.35;1.10;;;2.60;92.90;;;;;;5072385;28;20292;-68
2023/03/06 07:14:51;;;;;;;1.50;0.93;;;2.60;93.00;;;;;;5072221;28;20206;-68
2023/03/06 07:17:18;;;;;;;4.38;1.70;;;2.60;93.00;;;;;;5072827;28;20219;-68
2023/03/06 07:19:51;;;;;;;1.67;1.38;;;2.60;92.90;;;;;;5071729;28;20645;-68
2023/03/06 07:22:18;;;;;;;2.05;1.10;;;2.70;93.20;;;;;;5073065;28;20310;-68
2023/03/06 07:24:45;;;;;;;0.55;0.55;;;2.70;92.80;;;;;;5072531;28;20197;-68
2023/03/06 07:27:12;;;;;;;4.50;1.52;;;2.80;98.20;;;;;;5073626;28;20226;-69
2023/03/06 07:29:49;;;;;;;2.53;1.40;;;2.70;99.10;;;;;;5072546;28;20707;-68
2023/03/06 07:32:17;;;;;;;0.82;0.75;;;2.90;95.70;;;;;;5071958;28;20614;-69
2023/03/06 07:34:45;;;;;;;0.30;0.30;;;2.80;92.30;;;;;;5073202;28;20227;-68
2023/03/06 07:37:12;;;;;;;1.52;1.42;;;2.80;92.10;;;;;;5072171;28;20219;-68
2023/03/06 07:39:44;;;;;;;1.20;0.45;;;2.80;91.80;;;;;;5074452;28;20274;-68
2023/03/06 07:42:12;;;;;;;1.15;1.08;;;2.90;99.90;;;;;;5085100;28;20250;-69
2023/03/06 07:44:41;;;;;;;6.00;2.00;;;2.90;99.50;;;;;;5071421;28;20195;-69
2023/03/06 07:47:08;;;;;;;1.17;1.15;;;2.90;91.80;;;;;;5052942;28;20212;-68
2023/03/06 07:49:42;;;;;;;1.10;0.82;;;2.90;91.80;;;;;;5071151;28;20206;-68
2023/03/06 07:52:09;;;;;;;2.47;1.90;;;2.90;91.60;;;;;;5072018;28;20298;-68
2023/03/06 07:54:36;;;;;;;4.15;1.38;;;3.10;98.90;;;;;;5071786;28;20219;-68
2023/03/06 07:57:03;;;;;;;2.35;1.80;;;3.00;91.40;;;;;;5071621;28;20219;-68
2023/03/06 07:59:30;;;;;;;2.70;1.40;;;3.00;91.50;;;;;;5086755;28;20760;-69
2023/03/06 08:01:58;;;;;;;1.70;1.63;;;3.10;91.20;;;;;;5071603;28;20306;-68
2023/03/06 08:04:25;;;;;;;1.30;1.10;;;3.30;98.30;;;;;;5072405;28;20706;-69
2023/03/06 08:06:56;;;;;;;1.00;1.00;;;3.40;94.50;;;;;;5071656;28;20215;-69
2023/03/06 08:09:23;;;;;;;3.35;3.15;;;3.40;94.30;;;;;;5071693;28;20708;-68
2023/03/06 08:11:50;;;;;;;6.35;1.27;;;3.40;91.20;;;;;;5071417;28;20221;-68
2023/03/06 08:14:17;;;;;;;5.60;1.75;;;3.50;90.80;;;;;;5071513;28;20309;-69
2023/03/06 08:16:51;;;;;;;7.95;2.38;;;3.50;93.40;;;;;;5071291;28;20223;-68
2023/03/06 08:19:20;;;;;;;1.00;0.52;;;3.50;90.80;;;;;;5070787;28;20355;-69
2023/03/06 08:21:47;;;;;;;1.60;1.00;;;3.50;96.10;;;;;;5070442;28;20230;-68
2023/03/06 08:24:15;;;;;;;1.60;1.35;;;3.50;90.60;;;;;;5069411;28;20287;-68
2023/03/06 08:26:46;;;;;;;7.70;1.85;;;3.60;90.50;;;;;;5071892;28;20602;-67
2023/03/06 08:29:14;;;;;;;0.60;0.50;;;3.60;90.60;;;;;;5070980;28;20215;-68
2023/03/06 08:31:42;;;;;;;1.52;1.50;;;3.60;90.00;;;;;;5083845;28;20219;-69
2023/03/06 08:34:12;;;;;;;1.23;1.13;;;3.40;97.30;;;;;;5071114;28;20926;-68
2023/03/06 08:36:46;;;;;;;1.02;1.02;;;3.60;90.50;;;;;;5071426;28;20215;-67
2023/03/06 08:39:13;;;;;;;0.90;0.73;;;3.50;90.00;;;;;;5071737;28;20554;-68
2023/03/06 08:41:42;;;;;;;2.25;1.00;;;3.60;90.30;;;;;;5083946;28;20235;-69
2023/03/06 08:44:09;;;;;;;0.52;0.52;;;3.70;89.40;;;;;;5071296;28;20229;-69
2023/03/06 08:46:44;;;;;;;0.80;0.80;;;3.70;89.60;;;;;;5069878;28;20701;-68
2023/03/06 08:49:12;;;;;;;0.73;0.65;;;3.80;90.20;;;;;;5070899;28;20704;-69
2023/03/06 08:51:39;;;;;;;0.93;0.93;;;3.90;89.70;;;;;;5070836;28;20223;-68
2023/03/06 08:54:07;;;;;;;1.15;0.60;;;4.00;89.90;;;;;;5071236;28;20314;-68
2023/03/06 08:56:42;;;;;;;0.82;0.82;;;4.20;89.70;;;;;;5070761;28;20709;-68
2023/03/06 08:59:10;;;;;;;0.50;0.50;;;4.00;96.00;;;;;;5081353;28;20674;-68
2023/03/06 09:01:38;;;;;;;2.72;1.38;;;4.00;88.50;;;;;;5073562;28;20555;-69
2023/03/06 09:04:07;;;;;;;0.57;0.57;;;4.00;88.50;;;;;;5070578;28;20637;-67
2023/03/06 09:06:38;;;;;;;4.03;0.75;;;4.10;96.20;;;;;;5070326;28;20279;-68
2023/03/06 09:09:06;;;;;;;1.17;1.17;;;4.20;88.70;;;;;;5061492;28;20195;-68
2023/03/06 09:11:33;;;;;;;0.73;0.73;;;4.40;94.70;;;;;;5070266;28;20257;-68
2023/03/06 09:14:00;;;;;;;1.83;1.00;;;4.30;88.00;;;;;;5071077;28;20222;-68
2023/03/06 09:16:28;;;;;;;0.47;0.47;;;4.40;88.20;;;;;;5070074;28;20247;-69
2023/03/06 09:18:56;;;;;;;0.90;0.90;;;4.30;88.30;;;;;;5070502;28;20206;-68
2023/03/06 09:21:30;;;;;;;1.40;0.82;;;4.30;88.50;;;;;;5070265;28;20226;-68
2023/03/06 09:24:00;;;;;;;1.15;1.15;;;4.40;95.20;;;;;;5066461;28;20634;-70
2023/03/06 09:26:28;;;;;;;4.03;2.00;;;4.40;87.60;;;;;;5069926;28;20219;-68
2023/03/06 09:29:03;;;;;;;0.70;0.70;;;4.40;94.60;;;;;;5070107;28;20217;-68
2023/03/06 09:31:30;;;;;;;0.75;0.60;;;4.60;91.50;;;;;;5080909;28;20211;-68
2023/03/06 09:33:57;;;;;;;0.80;0.80;;;4.40;88.30;;;;;;5058903;28;20972;-68
2023/03/06 09:36:24;;;;;;;1.80;1.65;;;4.50;87.40;;;;;;5070292;28;20214;-69
2023/03/06 09:38:51;;;;;;;0.75;0.75;;;4.40;86.60;;;;;;5069441;28;20205;-68
2023/03/06 09:41:39;;;;;;;0.47;0.45;;;4.30;86.50;;;;;;5071228;28;20215;-68
2023/03/06 09:44:08;;;;;;;4.78;1.40;;;4.40;87.10;;;;;;5050582;28;20196;-69
2023/03/06 09:47:16;;;;;;;1.10;0.60;;;4.40;87.00;;;;;;5054438;28;20230;-69
2023/03/06 09:49:56;;;;;;;5.82;0.93;;;4.50;93.80;;;;;;5069380;28;20191;-68
2023/03/06 09:52:31;;;;;;;0.95;0.95;;;4.70;88.30;;;;;;5059566;28;20215;-69
2023/03/06 09:55:09;;;;;;;1.50;0.47;;;4.70;87.10;;;;;;5070279;28;20226;-68
2023/03/06 09:57:49;;;;;;;0.82;0.60;;;4.70;87.10;;;;;;5069748;28;20195;-69
2023/03/06 10:00:23;;;;;;;1.15;0.82;;;4.60;87.30;;;;;;5054112;28;20218;-69
2023/03/06 10:02:56;;;;;;;1.42;1.10;;;4.70;88.20;;;;;;5069774;28;20237;-68
2023/03/06 10:05:34;;;;;;;3.65;1.70;;;4.60;88.20;;;;;;5063756;28;20192;-69
2023/03/06 10:08:03;;;;;;;3.05;1.25;;;4.70;88.80;;;;;;5069471;28;20218;-67
2023/03/06 10:10:40;;;;;;;1.42;0.45;;;4.80;88.80;;;;;;5070069;28;20219;-69
2023/03/06 10:13:25;;;;;;;0.30;0.30;;;4.90;89.00;;;;;;5069825;28;20563;-69
2023/03/06 10:15:58;;;;;;;1.73;0.82;;;4.90;88.30;;;;;;5070290;28;20219;-68
2023/03/06 10:18:25;;;;;;;0.65;0.65;;;4.80;90.10;;;;;;5069256;28;20620;-68
2023/03/06 10:21:05;;;;;;;1.02;0.85;;;4.70;89.70;;;;;;5068078;28;20673;-69
2023/03/06 10:23:46;;;;;;;1.10;1.00;;;4.80;89.40;;;;;;5067793;28;20199;-68
2023/03/06 10:26:19;;;;;;;0.35;0.35;;;4.90;90.10;;;;;;5070145;28;20865;-69
2023/03/06 10:28:57;;;;;;;0.98;0.75;;;4.70;94.90;;;;;;5060884;28;20199;-68
2023/03/06 10:31:25;;;;;;;1.30;1.05;;;5.00;94.70;;;;;;5069626;28;20298;-69
2023/03/06 10:33:56;;;;;;;0.80;0.80;;;4.90;86.80;;;;;;5054145;28;20256;-69
2023/03/06 10:36:26;;;;;;;0.60;0.60;;;4.70;86.40;;;;;;5068987;28;20220;-69
2023/03/06 10:38:54;;;;;;;2.35;1.27;;;4.60;87.10;;;;;;5068827;28;20204;-68
2023/03/06 10:41:27;;;;;;;0.60;0.60;;;4.60;87.00;;;;;;5069753;28;20231;-67
2023/03/06 10:44:22;;;;;;;2.13;2.03;;;4.60;87.90;;;;;;5055410;28;20179;-69
2023/03/06 10:46:51;;;;;;;0.60;0.60;;;4.50;87.50;;;;;;5069614;28;20215;-68
2023/03/06 10:49:30;;;;;;;1.48;1.38;;;4.50;94.70;;;;;;5068800;28;20214;-69
2023/03/06 10:52:00;;;;;;;1.13;1.13;;;4.50;87.40;;;;;;5068584;28;20248;-68
2023/03/06 10:54:29;;;;;;;0.55;0.55;;;4.40;86.00;;;;;;5068405;28;20261;-68
2023/03/06 10:56:56;;;;;;;0.57;0.57;;;4.40;87.20;;;;;;5069405;28;20835;-69
2023/03/06 10:59:27;;;;;;;1.80;1.67;;;4.50;87.20;;;;;;5069356;28;20274;-68
2023/03/06 11:02:26;;;;;;;2.55;2.35;;;4.50;94.10;;;;;;5067924;28;20743;-69
2023/03/06 11:04:54;;;;;;;4.53;1.23;;;4.50;86.20;;;;;;5057898;28;20203;-69
2023/03/06 11:07:22;;;;;;;4.18;2.20;;;4.50;86.80;;;;;;5069073;28;20219;-68
2023/03/06 11:10:02;;;;;;;1.48;1.10;;;4.50;86.20;;;;;;5068578;28;20203;-69
2023/03/06 11:12:31;;;;;;;1.77;1.67;;;4.60;86.20;;;;;;5068184;28;20199;-68
2023/03/06 11:15:17;;;;;;;0.90;0.68;;;4.60;85.60;;;;;;5069876;28;20700;-69
2023/03/06 11:17:56;;;;;;;7.75;3.65;;;4.70;87.00;;;;;;5069791;28;20273;-68
2023/03/06 11:20:25;;;;;;;5.78;3.00;;;4.70;85.30;;;;;;5069024;28;20234;-67
2023/03/06 11:22:56;;;;;;;1.48;0.85;;;4.60;85.40;;;;;;5064487;28;20278;-67
2023/03/06 11:25:28;;;;;;;1.15;1.05;;;4.70;85.10;;;;;;5069485;28;20195;-67
2023/03/06 11:27:59;;;;;;;1.30;0.75;;;4.80;86.30;;;;;;5070241;28;20645;-68
2023/03/06 11:30:39;;;;;;;3.22;1.73;;;4.80;84.70;;;;;;5072812;28;20238;-68
2023/03/06 11:33:14;;;;;;;1.77;1.63;;;5.00;93.40;;;;;;5072226;28;20205;-68
2023/03/06 11:35:49;;;;;;;1.70;1.45;;;4.90;84.40;;;;;;5073088;28;20257;-68
2023/03/06 11:38:23;;;;;;;2.80;2.67;;;4.90;83.60;;;;;;5072480;28;20193;-67
2023/03/06 11:40:53;;;;;;;7.32;4.25;;;5.00;84.30;;;;;;5071838;28;21090;-69
2023/03/06 11:43:25;;;;;;;2.70;2.50;;;5.10;83.70;;;;;;5072472;28;20194;-68
2023/03/06 11:46:06;;;;;;;5.32;3.17;;;5.20;83.10;;;;;;5051947;28;20748;-68
2023/03/06 11:48:36;;;;;;;2.40;1.85;;;5.40;82.80;;;;;;5072888;28;20210;-67
2023/03/06 11:51:10;;;;;;;4.60;3.10;;;5.30;82.00;;;;;;5072015;28;20218;-67
2023/03/06 11:53:39;;;;;;;2.15;1.90;;;5.40;82.60;;;;;;5072047;28;20286;-69
2023/03/06 11:56:21;;;;;;;1.50;0.85;;;5.40;80.90;;;;;;5071794;28;20227;-69
2023/03/06 11:59:00;;;;;;;2.60;1.77;;;5.40;80.60;;;;;;5080041;28;20205;-68
2023/03/06 12:01:40;;;;;;;3.15;1.95;;;5.40;79.20;;;;;;5078041;28;20241;-68
2023/03/06 12:04:29;;;;;;;1.60;1.50;;;5.30;79.20;;;;;;5072490;28;20211;-68
2023/03/06 12:07:11;;;;;;;7.78;3.15;;;5.40;79.70;;;;;;5072518;28;20223;-69
2023/03/06 12:09:46;;;;;;;2.40;2.30;;;5.60;79.60;;;;;;5071980;28;20210;-69
2023/03/06 12:12:51;;;;;;;2.38;2.28;;;5.70;77.70;;;;;;5072171;28;20216;-69
2023/03/06 12:15:29;;;;;;;1.25;1.15;;;5.70;78.20;;;;;;5052020;28;20227;-69
2023/03/06 12:18:22;;;;;;;1.65;1.20;;;5.90;78.80;;;;;;5057530;28;20199;-69
2023/03/06 12:20:58;;;;;;;5.95;2.03;;;6.00;78.20;;;;;;5059446;28;20310;-68
2023/03/06 12:23:49;;;;;;;0.88;0.82;;;6.00;77.60;;;;;;5067783;28;20609;-68
2023/03/06 12:26:41;;;;;;;3.80;1.70;;;6.30;78.70;;;;;;5071676;28;20260;-68
2023/03/06 12:29:30;;;;;;;1.33;1.13;;;6.50;78.70;;;;;;5072057;28;20210;-69
2023/03/06 12:32:14;;;;;;;2.78;2.17;;;6.40;76.30;;;;;;5066300;28;20576;-68
2023/03/06 12:35:23;;;;;;;3.50;0.98;;;6.00;76.20;;;;;;5072036;28;20677;-69
2023/03/06 12:38:10;;;;;;;1.00;0.80;;;6.10;77.40;;;;;;5061400;28;20204;-68
2023/03/06 12:40:53;;;;;;;3.03;2.83;;;6.00;77.00;;;;;;5070679;28;20223;-68
2023/03/06 12:44:00;;;;;;;1.58;1.48;;;5.80;81.50;;;;;;5071636;28;20226;-69
2023/03/06 12:46:29;;;;;;;2.22;1.90;;;5.70;77.00;;;;;;5071424;28;20230;-69
2023/03/06 12:49:02;;;;;;;3.22;1.75;;;5.70;78.00;;;;;;5071568;28;20191;-68
2023/03/06 12:51:30;;;;;;;1.67;1.08;;;5.70;77.60;;;;;;5071393;28;20219;-69
2023/03/06 12:54:01;;;;;;;2.58;1.92;;;5.70;77.80;;;;;;5071200;28;20291;-68
2023/03/06 12:56:29;;;;;;;9.10;2.50;;;5.60;78.00;;;;;;5070555;28;20223;-68
2023/03/06 12:58:57;;;;;;;1.88;1.77;;;5.70;77.90;;;;;;5080617;28;20195;-69
2023/03/06 13:02:02;;;;;;;2.65;2.13;;;5.70;78.80;;;;;;5077863;28;20343;-66
2023/03/06 13:05:04;;;;;;;0.93;0.90;;;5.50;78.40;;;;;;5051341;28;20290;-68
2023/03/06 13:07:46;;;;;;;1.48;1.20;;;5.60;79.70;;;;;;5051290;28;20188;-68
2023/03/06 13:10:26;;;;;;;0.50;0.50;;;5.50;78.80;;;;;;5069999;28;20195;-68
2023/03/06 13:12:56;;;;;;;3.35;1.60;;;5.60;79.20;;;;;;5070759;28;20707;-69
2023/03/06 13:16:04;;;;;;;5.10;1.58;;;5.50;77.60;;;;;;5070146;28;20313;-68
2023/03/06 13:18:50;;;;;;;2.90;1.00;;;5.50;78.00;;;;;;5070964;28;20213;-69